Time;durP1;ratioP1;P1;durP2;ratioP2;P2;SDS_P1;SDS_P2;PMS_P1;PMS_P2;Temp;Humidity;BMP_temperature;BMP_pressure;BME280_temperature;BME280_humidity;BME280_pressure;Samples;Min_cycle;Max_cycle;Signal;HPM_P1;HPM_P2
2023/11/09 00:01:44;;;;;;;0.55;0.40;;;14.80;70.60;16.40;99972.00;;;;4984375;28;20661;-78
2023/11/09 00:04:12;;;;;;;0.80;0.63;;;14.80;70.60;16.40;99964.00;;;;4983380;28;20244;-78
2023/11/09 00:06:39;;;;;;;2.47;0.40;;;14.80;70.70;16.40;99957.00;;;;4979124;28;20667;-78
2023/11/09 00:09:06;;;;;;;0.93;0.57;;;14.90;70.70;16.40;99958.00;;;;4981594;28;20292;-78
2023/11/09 00:11:35;;;;;;;0.60;0.40;;;14.90;70.80;16.40;99957.00;;;;4990498;28;20197;-78
2023/11/09 00:14:04;;;;;;;0.82;0.40;;;14.90;70.70;16.40;99954.00;;;;4987474;28;20229;-78
2023/11/09 00:16:31;;;;;;;0.88;0.60;;;14.90;70.60;16.40;99957.00;;;;4978083;28;20194;-78
2023/11/09 00:19:00;;;;;;;0.70;0.47;;;14.90;70.60;16.40;99958.00;;;;4989993;28;20194;-78
2023/11/09 00:21:27;;;;;;;1.30;0.40;;;14.90;70.60;16.40;99953.00;;;;4990999;28;20193;-77
2023/11/09 00:23:55;;;;;;;0.60;0.50;;;14.90;70.90;16.40;99943.00;;;;4990826;28;20204;-77
2023/11/09 00:26:24;;;;;;;1.15;0.50;;;14.80;70.60;16.40;99934.00;;;;4986781;28;20237;-77
2023/11/09 00:28:51;;;;;;;0.70;0.50;;;14.80;70.60;16.40;99942.00;;;;4990785;28;20229;-78
2023/11/09 00:31:19;;;;;;;0.70;0.43;;;14.90;70.70;16.40;99924.00;;;;4987555;28;20197;-78
2023/11/09 00:33:46;;;;;;;1.10;0.57;;;14.80;70.80;16.40;99936.00;;;;4990226;28;20573;-78
2023/11/09 00:36:15;;;;;;;0.60;0.50;;;14.90;70.80;16.40;99934.00;;;;4989366;28;20212;-78
2023/11/09 00:38:42;;;;;;;0.75;0.50;;;14.90;70.70;16.40;99923.00;;;;4984632;28;20194;-78
2023/11/09 00:41:09;;;;;;;0.85;0.50;;;14.90;70.80;16.40;99922.00;;;;4990079;28;20208;-78
2023/11/09 00:43:36;;;;;;;1.05;0.50;;;14.90;70.80;16.40;99913.00;;;;4988939;28;20209;-78
2023/11/09 00:46:03;;;;;;;0.80;0.60;;;14.90;70.90;16.40;99895.00;;;;4989864;28;20208;-78
2023/11/09 00:48:30;;;;;;;0.70;0.60;;;14.80;70.80;16.40;99909.00;;;;4987463;28;20296;-78
2023/11/09 00:50:57;;;;;;;1.20;0.50;;;14.90;70.90;16.40;99902.00;;;;4988553;28;20198;-78
2023/11/09 00:53:26;;;;;;;0.68;0.60;;;14.90;70.90;16.40;99903.00;;;;4989105;28;20224;-77
2023/11/09 00:55:53;;;;;;;0.88;0.57;;;14.90;70.90;16.40;99904.00;;;;4985878;28;20594;-78
2023/11/09 00:58:20;;;;;;;0.90;0.70;;;14.80;70.90;16.40;99888.00;;;;4988694;28;20205;-78
2023/11/09 01:00:47;;;;;;;0.88;0.70;;;14.80;70.90;16.40;99888.00;;;;4989514;28;20205;-78
2023/11/09 01:03:14;;;;;;;1.25;0.63;;;14.80;70.80;16.40;99888.00;;;;4989006;28;20211;-78
2023/11/09 01:05:41;;;;;;;0.75;0.60;;;14.90;71.00;16.40;99881.00;;;;4988231;28;20198;-78
2023/11/09 01:08:08;;;;;;;0.80;0.45;;;14.90;71.00;16.40;99880.00;;;;4989142;28;20197;-78
2023/11/09 01:10:37;;;;;;;1.20;0.65;;;14.80;70.90;16.40;99878.00;;;;4989330;28;20197;-78
2023/11/09 01:13:04;;;;;;;0.65;0.47;;;14.90;71.00;16.40;99880.00;;;;4988153;28;20204;-78
2023/11/09 01:15:31;;;;;;;1.48;1.00;;;14.90;71.00;16.40;99877.00;;;;4988204;28;20300;-78
2023/11/09 01:18:03;;;;;;;2.97;0.60;;;14.90;71.00;16.40;99879.00;;;;4988384;28;20197;-78
2023/11/09 01:20:31;;;;;;;0.93;0.60;;;14.90;71.10;16.50;99873.00;;;;4988189;28;20644;-78
2023/11/09 01:22:58;;;;;;;0.57;0.43;;;14.90;71.00;16.50;99871.00;;;;4988290;28;20690;-78
2023/11/09 01:25:25;;;;;;;1.55;0.70;;;14.90;71.00;16.40;99864.00;;;;4988528;28;20307;-78
2023/11/09 01:27:54;;;;;;;1.30;0.65;;;14.90;71.00;16.40;99863.00;;;;4988807;28;20567;-79
2023/11/09 01:30:21;;;;;;;0.70;0.50;;;14.90;70.90;16.40;99866.00;;;;4987409;28;20280;-78
2023/11/09 01:32:48;;;;;;;0.60;0.60;;;14.90;70.90;16.40;99866.00;;;;4988541;28;20571;-78
2023/11/09 01:35:15;;;;;;;0.50;0.40;;;14.90;71.00;16.40;99857.00;;;;4989164;28;20225;-78
2023/11/09 01:37:42;;;;;;;1.50;0.70;;;14.90;71.00;16.40;99854.00;;;;4981476;28;20289;-78
2023/11/09 01:40:12;;;;;;;0.80;0.60;;;14.90;71.00;16.40;99858.00;;;;4989037;28;20205;-78
2023/11/09 01:42:42;;;;;;;0.65;0.55;;;14.90;71.10;16.40;99850.00;;;;4987264;28;20204;-78
2023/11/09 01:45:11;;;;;;;0.60;0.50;;;14.90;71.10;16.50;99860.00;;;;4988539;28;20938;-78
2023/11/09 01:47:38;;;;;;;0.40;0.40;;;14.90;71.00;16.50;99853.00;;;;4978922;28;20198;-78
2023/11/09 01:50:09;;;;;;;2.05;0.88;;;14.90;71.00;16.50;99853.00;;;;4986366;28;20205;-78
2023/11/09 01:52:36;;;;;;;0.45;0.35;;;14.90;71.00;16.50;99840.00;;;;4987026;28;20663;-78
2023/11/09 01:55:06;;;;;;;0.70;0.63;;;14.90;71.00;16.50;99843.00;;;;4987520;28;20231;-78
2023/11/09 01:57:35;;;;;;;1.35;0.55;;;14.90;71.10;16.50;99843.00;;;;4988460;28;20197;-78
2023/11/09 02:00:03;;;;;;;2.08;0.60;;;14.90;71.00;16.50;99838.00;;;;4987650;28;20197;-78
2023/11/09 02:02:31;;;;;;;0.82;0.73;;;14.90;71.00;16.50;99838.00;;;;4987146;28;20226;-78
2023/11/09 02:04:59;;;;;;;0.90;0.60;;;15.00;71.10;16.50;99830.00;;;;4983813;28;20199;-78
2023/11/09 02:07:28;;;;;;;2.40;0.38;;;14.90;71.00;16.50;99829.00;;;;4984800;28;20212;-78
2023/11/09 02:09:55;;;;;;;0.63;0.43;;;15.00;71.00;16.50;99818.00;;;;4986973;28;20288;-78
2023/11/09 02:12:23;;;;;;;1.05;0.52;;;14.90;71.00;16.60;99819.00;;;;4988066;28;20208;-77
2023/11/09 02:14:50;;;;;;;0.77;0.60;;;15.00;71.00;16.50;99813.00;;;;4981180;28;20217;-78
2023/11/09 02:17:18;;;;;;;0.50;0.40;;;15.00;71.00;16.60;99807.00;;;;4987885;28;20289;-78
2023/11/09 02:19:46;;;;;;;2.08;0.90;;;15.00;71.00;16.50;99813.00;;;;4981949;28;20205;-78
2023/11/09 02:22:16;;;;;;;0.60;0.45;;;15.00;71.00;16.50;99801.00;;;;4989267;28;20209;-78
2023/11/09 02:24:47;;;;;;;0.57;0.50;;;14.90;70.90;16.50;99803.00;;;;4982925;28;20208;-77
2023/11/09 02:27:14;;;;;;;0.50;0.40;;;15.00;70.90;16.60;99790.00;;;;4978470;28;20368;-78
2023/11/09 02:29:41;;;;;;;0.75;0.57;;;15.00;70.90;16.60;99793.00;;;;4986210;28;20266;-78
2023/11/09 02:32:09;;;;;;;0.52;0.50;;;15.00;71.00;16.60;99787.00;;;;4992295;28;20198;-78
2023/11/09 02:34:37;;;;;;;0.70;0.70;;;15.00;70.90;16.60;99788.00;;;;4991304;28;20235;-78
2023/11/09 02:37:07;;;;;;;1.10;0.75;;;15.00;71.00;16.60;99789.00;;;;4991134;28;20205;-77
2023/11/09 02:39:34;;;;;;;0.60;0.50;;;15.00;71.00;16.60;99779.00;;;;4991412;28;20844;-77
2023/11/09 02:42:03;;;;;;;0.95;0.50;;;15.00;70.90;16.60;99783.00;;;;4992687;28;20209;-77
2023/11/09 02:44:30;;;;;;;0.80;0.70;;;15.00;70.90;16.60;99790.00;;;;4992176;28;20198;-78
2023/11/09 02:46:57;;;;;;;0.90;0.80;;;15.00;71.00;16.60;99788.00;;;;4990743;28;20216;-77
2023/11/09 02:49:24;;;;;;;2.72;0.80;;;15.00;70.90;16.60;99789.00;;;;4990769;28;20197;-77
2023/11/09 02:51:52;;;;;;;0.70;0.45;;;15.00;70.90;16.60;99786.00;;;;4991172;28;20216;-78
2023/11/09 02:54:19;;;;;;;1.00;0.80;;;15.00;71.00;16.60;99783.00;;;;4991460;28;20296;-78
2023/11/09 02:56:46;;;;;;;0.98;0.82;;;15.00;71.00;16.60;99785.00;;;;4989907;28;20216;-77
2023/11/09 02:59:14;;;;;;;1.00;0.80;;;15.00;71.00;16.60;99783.00;;;;4991612;28;20824;-77
2023/11/09 03:01:41;;;;;;;1.30;0.82;;;15.00;71.00;16.60;99773.00;;;;4988883;28;20259;-78
2023/11/09 03:04:09;;;;;;;1.10;0.82;;;15.00;71.10;16.60;99774.00;;;;4991165;28;20204;-77
2023/11/09 03:06:36;;;;;;;1.10;0.65;;;15.00;71.10;16.70;99781.00;;;;4981941;28;20206;-77
2023/11/09 03:09:03;;;;;;;0.82;0.70;;;15.10;71.20;16.70;99781.00;;;;4990315;28;20212;-78
2023/11/09 03:11:30;;;;;;;1.23;0.88;;;15.10;71.20;16.70;99776.00;;;;4989404;28;20197;-78
2023/11/09 03:13:57;;;;;;;0.88;0.77;;;15.10;71.10;16.70;99774.00;;;;4990485;28;20221;-77
2023/11/09 03:16:25;;;;;;;0.80;0.77;;;15.10;71.00;16.70;99783.00;;;;4989497;28;20202;-77
2023/11/09 03:18:52;;;;;;;3.97;1.10;;;15.10;71.10;16.70;99787.00;;;;4990702;28;20198;-77
2023/11/09 03:21:20;;;;;;;1.40;1.30;;;15.10;71.10;16.70;99788.00;;;;4990060;28;20753;-77
2023/11/09 03:23:49;;;;;;;1.17;1.08;;;15.10;71.10;16.70;99784.00;;;;4989942;28;20197;-77
2023/11/09 03:26:16;;;;;;;1.40;1.30;;;15.10;71.10;16.70;99786.00;;;;4989641;28;20316;-77
2023/11/09 03:28:44;;;;;;;1.95;1.30;;;15.10;71.20;16.70;99783.00;;;;4988812;28;20283;-77
2023/11/09 03:31:13;;;;;;;1.48;1.30;;;15.10;71.10;16.70;99791.00;;;;4990021;28;20213;-77
2023/11/09 03:33:41;;;;;;;2.88;1.20;;;15.10;71.20;16.70;99788.00;;;;4990229;28;20198;-77
2023/11/09 03:36:08;;;;;;;1.50;1.08;;;15.10;71.10;16.70;99786.00;;;;4989781;28;20224;-77
2023/11/09 03:38:36;;;;;;;1.50;1.40;;;15.10;71.10;16.70;99792.00;;;;4990317;28;20204;-78
2023/11/09 03:41:03;;;;;;;1.70;1.60;;;15.20;71.40;16.80;99792.00;;;;4989964;28;20202;-78
2023/11/09 03:43:30;;;;;;;1.30;1.20;;;15.20;71.30;16.80;99785.00;;;;4990486;28;20201;-77
2023/11/09 03:45:59;;;;;;;1.30;1.20;;;15.20;71.30;16.70;99777.00;;;;4988794;28;20220;-78
2023/11/09 03:48:26;;;;;;;1.60;1.02;;;15.20;71.30;16.80;99784.00;;;;4989807;28;20205;-77
2023/11/09 03:50:55;;;;;;;2.88;1.13;;;15.20;71.30;16.80;99774.00;;;;4990367;28;20204;-77
2023/11/09 03:53:23;;;;;;;1.73;1.35;;;15.20;71.30;16.80;99781.00;;;;4983411;28;20197;-78
2023/11/09 03:55:50;;;;;;;1.42;1.33;;;15.20;71.30;16.80;99783.00;;;;4990053;28;20225;-77
2023/11/09 03:58:17;;;;;;;1.45;1.27;;;15.20;71.30;16.80;99780.00;;;;4989890;28;20209;-77
2023/11/09 04:00:44;;;;;;;1.45;1.33;;;15.20;71.20;16.80;99787.00;;;;4989136;28;20926;-78
2023/11/09 04:03:14;;;;;;;1.50;1.40;;;15.20;71.20;16.90;99788.00;;;;4989122;28;20282;-77
2023/11/09 04:05:41;;;;;;;1.85;1.75;;;15.30;71.30;16.90;99784.00;;;;4989624;28;20675;-77
2023/11/09 04:08:09;;;;;;;4.15;2.03;;;15.30;71.90;16.90;99786.00;;;;4987600;28;20775;-78
2023/11/09 04:10:36;;;;;;;2.03;1.60;;;15.30;71.20;16.90;99797.00;;;;4989605;28;20671;-78
2023/11/09 04:13:03;;;;;;;1.65;1.55;;;15.20;71.10;16.90;99802.00;;;;4989802;28;20741;-78
2023/11/09 04:15:30;;;;;;;1.73;1.55;;;15.30;71.10;16.90;99806.00;;;;4987377;28;20595;-77
2023/11/09 04:17:57;;;;;;;1.65;1.55;;;15.30;71.10;16.90;99799.00;;;;4989103;28;20784;-78
2023/11/09 04:20:25;;;;;;;1.63;1.52;;;15.20;71.00;16.90;99797.00;;;;4989612;28;20198;-77
2023/11/09 04:22:52;;;;;;;2.17;1.80;;;15.30;71.00;16.90;99798.00;;;;4988703;28;20242;-78
2023/11/09 04:25:22;;;;;;;1.90;1.80;;;15.30;71.00;16.90;99799.00;;;;4988134;28;20327;-77
2023/11/09 04:27:50;;;;;;;1.40;1.30;;;15.20;70.90;16.90;99808.00;;;;4986725;28;20197;-77
2023/11/09 04:30:20;;;;;;;1.50;1.40;;;15.30;71.00;16.90;99803.00;;;;4988381;28;20206;-77
2023/11/09 04:32:47;;;;;;;1.70;1.40;;;15.30;70.90;16.90;99806.00;;;;4989813;28;20236;-77
2023/11/09 04:35:15;;;;;;;1.50;1.27;;;15.20;70.70;16.90;99802.00;;;;4989365;28;20239;-78
2023/11/09 04:37:42;;;;;;;2.13;1.90;;;15.20;70.60;16.90;99801.00;;;;4987861;28;20288;-78
2023/11/09 04:40:15;;;;;;;0.90;0.80;;;15.20;70.60;16.80;99795.00;;;;4987497;28;20730;-78
2023/11/09 04:42:44;;;;;;;1.45;1.08;;;15.20;70.60;16.80;99797.00;;;;4987477;28;20216;-78
2023/11/09 04:45:12;;;;;;;1.00;0.90;;;15.20;70.50;16.80;99799.00;;;;4989805;28;20200;-77
2023/11/09 04:47:41;;;;;;;2.70;1.00;;;15.20;70.50;16.80;99804.00;;;;4980859;28;20280;-77
2023/11/09 04:50:14;;;;;;;1.02;0.90;;;15.20;70.40;16.80;99806.00;;;;4987528;28;20288;-77
2023/11/09 04:52:44;;;;;;;1.70;0.80;;;15.20;70.40;16.80;99808.00;;;;4981778;28;20210;-77
2023/11/09 04:55:14;;;;;;;1.88;1.00;;;15.20;70.30;16.80;99809.00;;;;4989504;28;20221;-77
2023/11/09 05:08:42;;;;;;;1.92;1.33;;;15.00;70.10;16.60;99801.00;;;;4982823;28;20229;-77
2023/11/09 05:11:13;;;;;;;1.75;1.13;;;15.00;70.10;16.60;99792.00;;;;4988760;28;20198;-77
2023/11/09 05:13:41;;;;;;;1.20;0.93;;;15.00;70.10;16.60;99798.00;;;;4988211;28;20246;-77
2023/11/09 05:16:08;;;;;;;1.27;1.10;;;14.90;70.20;16.60;99788.00;;;;4987139;28;20707;-77
2023/11/09 05:18:37;;;;;;;1.90;1.10;;;14.90;70.20;16.60;99779.00;;;;4988455;28;20280;-77
2023/11/09 05:21:06;;;;;;;2.92;1.25;;;14.90;70.20;16.60;99794.00;;;;4985082;28;20281;-77
2023/11/09 05:23:33;;;;;;;1.42;1.20;;;14.90;70.20;16.60;99806.00;;;;4988563;28;20209;-77
2023/11/09 05:26:01;;;;;;;1.70;1.60;;;14.90;70.30;16.60;99818.00;;;;4986106;28;20244;-77
2023/11/09 05:28:28;;;;;;;2.75;1.50;;;14.90;70.30;16.60;99819.00;;;;4988290;28;20224;-77
2023/11/09 05:30:57;;;;;;;3.38;1.60;;;14.90;70.20;16.50;99825.00;;;;4986715;28;20194;-77
2023/11/09 05:33:24;;;;;;;2.25;1.77;;;14.90;70.20;16.50;99828.00;;;;4987050;28;20213;-77
2023/11/09 05:35:51;;;;;;;2.47;1.92;;;14.80;70.20;16.50;99832.00;;;;4981602;28;20213;-77
2023/11/09 05:38:19;;;;;;;3.50;2.15;;;14.80;70.20;16.40;99826.00;;;;4986199;28;20202;-77
2023/11/09 05:40:47;;;;;;;4.20;2.47;;;14.80;70.20;16.40;99837.00;;;;4987878;28;20201;-77
2023/11/09 05:43:14;;;;;;;4.38;2.72;;;14.80;70.20;16.40;99843.00;;;;4985835;28;20209;-78
2023/11/09 05:45:43;;;;;;;4.10;3.00;;;14.80;70.30;16.40;99845.00;;;;4988104;28;20289;-78
2023/11/09 05:48:12;;;;;;;3.63;3.15;;;14.70;70.10;16.30;99847.00;;;;4985536;28;20251;-77
2023/11/09 05:50:39;;;;;;;3.13;2.78;;;14.70;70.10;16.30;99847.00;;;;4981294;28;20577;-78
2023/11/09 05:53:06;;;;;;;4.63;3.67;;;14.70;70.10;16.30;99844.00;;;;4983875;28;20204;-78
2023/11/09 05:55:33;;;;;;;5.35;3.55;;;14.70;70.20;16.30;99854.00;;;;4978903;28;20233;-78
2023/11/09 05:58:01;;;;;;;4.13;3.25;;;14.70;70.20;16.30;99852.00;;;;4978231;28;20206;-77
2023/11/09 06:00:28;;;;;;;4.80;3.25;;;14.60;70.20;16.30;99846.00;;;;4982147;28;20202;-77
2023/11/09 06:02:55;;;;;;;3.58;3.22;;;14.60;70.30;16.30;99844.00;;;;4985434;28;20189;-78
2023/11/09 06:05:25;;;;;;;4.75;3.38;;;14.70;70.40;16.30;99856.00;;;;4977365;28;20226;-78
2023/11/09 06:07:52;;;;;;;5.10;3.88;;;14.70;70.40;16.30;99860.00;;;;4983948;28;20205;-78
2023/11/09 06:10:20;;;;;;;4.07;3.47;;;14.60;70.30;16.30;99869.00;;;;4983046;28;20205;-78
2023/11/09 06:12:47;;;;;;;4.47;3.30;;;14.60;70.30;16.20;99873.00;;;;4987065;28;20296;-78
2023/11/09 06:15:15;;;;;;;8.07;3.67;;;14.70;70.40;16.20;99867.00;;;;4982795;28;20308;-78
2023/11/09 06:17:43;;;;;;;5.25;3.08;;;14.60;70.20;16.20;99854.00;;;;4982183;28;20205;-78
2023/11/09 06:20:13;;;;;;;7.70;3.28;;;14.60;70.20;16.20;99862.00;;;;4978817;28;20684;-77
2023/11/09 06:22:41;;;;;;;4.07;3.10;;;14.60;70.10;16.20;99866.00;;;;4980045;28;20671;-78
2023/11/09 06:25:09;;;;;;;4.78;2.95;;;14.60;70.10;16.20;99863.00;;;;4979684;28;20229;-78
2023/11/09 06:27:37;;;;;;;5.07;3.10;;;14.60;70.10;16.20;99867.00;;;;4983013;28;20205;-78
2023/11/09 06:30:06;;;;;;;3.15;2.55;;;14.50;70.00;16.20;99871.00;;;;4979171;28;20296;-77
2023/11/09 06:32:33;;;;;;;2.38;2.05;;;14.50;69.90;16.20;99879.00;;;;4983422;28;20213;-78
2023/11/09 06:35:03;;;;;;;5.13;2.47;;;14.50;69.90;16.10;99874.00;;;;4985540;28;20221;-79
2023/11/09 06:37:32;;;;;;;4.57;2.25;;;14.50;69.80;16.10;99879.00;;;;4987428;28;20193;-78
2023/11/09 06:40:20;;;;;;;5.22;2.55;;;14.50;69.80;16.00;99884.00;;;;4984253;28;20197;-80
2023/11/09 06:42:49;;;;;;;3.00;1.85;;;14.50;69.80;16.10;99889.00;;;;4982536;28;20333;-77
2023/11/09 06:45:20;;;;;;;5.82;2.40;;;14.40;69.70;16.10;99884.00;;;;5000092;22;20209;-84
2023/11/09 06:47:48;;;;;;;5.10;2.55;;;14.40;69.70;16.10;99897.00;;;;5011808;22;20264;-77
2023/11/09 06:50:19;;;;;;;3.42;2.28;;;14.40;69.60;16.10;99901.00;;;;5010946;28;20617;-77
2023/11/09 06:52:50;;;;;;;5.28;2.40;;;14.40;69.60;16.00;99897.00;;;;5004768;28;20212;-77
2023/11/09 06:55:20;;;;;;;4.22;2.08;;;14.40;69.60;16.00;99905.00;;;;5006177;28;20279;-78
2023/11/09 06:57:47;;;;;;;2.65;1.90;;;14.30;69.50;16.00;99916.00;;;;5003385;28;20706;-78
2023/11/09 07:00:16;;;;;;;2.47;1.77;;;14.30;69.50;16.00;99913.00;;;;5004231;28;20205;-78
2023/11/09 07:02:44;;;;;;;4.28;2.22;;;14.30;69.40;15.90;99929.00;;;;5004912;28;20197;-77
2023/11/09 07:05:11;;;;;;;2.90;1.63;;;14.30;69.40;15.90;99926.00;;;;5007448;28;20208;-76
2023/11/09 07:07:39;;;;;;;3.08;1.67;;;14.20;69.30;15.90;99925.00;;;;5001310;28;20198;-76
2023/11/09 07:10:08;;;;;;;2.38;1.92;;;14.20;69.30;15.80;99932.00;;;;5009925;28;20672;-76
2023/11/09 07:12:36;;;;;;;5.22;2.20;;;14.10;69.30;15.80;99930.00;;;;5008298;28;20205;-76
2023/11/09 07:15:07;;;;;;;2.83;1.95;;;14.10;69.40;15.80;99926.00;;;;5017373;28;20312;-76
2023/11/09 07:17:35;;;;;;;3.50;2.00;;;14.10;69.50;15.80;99935.00;;;;5003459;28;20209;-76
2023/11/09 07:20:02;;;;;;;4.60;2.33;;;14.10;69.60;15.80;99919.00;;;;5010621;28;20204;-76
2023/11/09 07:22:30;;;;;;;3.95;1.80;;;14.00;69.60;15.80;99931.00;;;;5015716;28;20593;-76
2023/11/09 07:24:57;;;;;;;3.35;2.22;;;14.00;69.70;15.80;99927.00;;;;5015392;28;20207;-76
2023/11/09 07:27:25;;;;;;;4.30;2.28;;;14.00;69.80;15.80;99933.00;;;;5011316;28;20223;-76
2023/11/09 07:29:54;;;;;;;6.25;2.15;;;14.00;69.90;15.80;99923.00;;;;5009317;28;20288;-76
2023/11/09 07:32:22;;;;;;;7.70;2.60;;;14.00;70.00;15.80;99926.00;;;;5007008;28;20192;-76
2023/11/09 07:34:49;;;;;;;7.10;2.30;;;14.00;70.00;15.80;99925.00;;;;5008866;28;20293;-76
2023/11/09 07:37:16;;;;;;;4.03;2.25;;;14.00;70.00;15.70;99933.00;;;;5008369;28;20200;-76
2023/11/09 07:39:44;;;;;;;3.80;2.50;;;14.00;70.00;15.70;99924.00;;;;5009842;28;20205;-76
2023/11/09 07:42:11;;;;;;;6.35;2.47;;;14.00;70.00;15.70;99930.00;;;;5008201;28;20209;-77
2023/11/09 07:44:38;;;;;;;2.65;2.10;;;14.00;70.00;15.70;99926.00;;;;5016366;28;20576;-76
2023/11/09 07:47:07;;;;;;;3.05;2.25;;;14.00;70.00;15.70;99925.00;;;;5006596;28;20233;-77
2023/11/09 07:49:34;;;;;;;5.38;2.47;;;14.00;69.90;15.70;99923.00;;;;5003943;28;20228;-77
2023/11/09 07:52:03;;;;;;;6.97;2.60;;;14.00;69.90;15.60;99926.00;;;;5014927;28;20208;-77
2023/11/09 07:54:31;;;;;;;5.60;2.50;;;14.00;69.90;15.60;99928.00;;;;5006881;28;20212;-76
2023/11/09 07:57:01;;;;;;;4.47;3.17;;;13.90;69.90;15.60;99930.00;;;;5008586;28;20303;-77
2023/11/09 07:59:28;;;;;;;6.20;3.00;;;13.90;69.90;15.60;99926.00;;;;5008496;28;20579;-77
2023/11/09 08:01:56;;;;;;;6.22;3.38;;;13.90;70.00;15.60;99929.00;;;;5013129;28;20193;-77
2023/11/09 08:04:27;;;;;;;6.65;2.72;;;13.90;70.70;15.50;99924.00;;;;5000674;28;20208;-77
2023/11/09 08:06:54;;;;;;;3.97;2.80;;;13.90;70.00;15.60;99923.00;;;;5010066;28;20251;-77
2023/11/09 08:09:22;;;;;;;5.28;3.58;;;13.80;70.00;15.60;99923.00;;;;5002612;28;20742;-77
2023/11/09 08:11:49;;;;;;;8.25;3.40;;;13.90;70.20;15.60;99924.00;;;;5009818;28;20555;-77
2023/11/09 08:14:16;;;;;;;5.38;3.03;;;13.90;70.20;15.60;99931.00;;;;5008500;28;20211;-77
2023/11/09 08:16:43;;;;;;;4.47;3.13;;;13.80;70.30;15.60;99923.00;;;;5015028;28;20982;-77
2023/11/09 08:19:10;;;;;;;8.15;3.92;;;13.90;70.40;15.60;99939.00;;;;5006568;28;20211;-77
2023/11/09 08:21:40;;;;;;;6.18;3.88;;;13.90;70.50;15.60;99937.00;;;;5006042;28;20200;-76
2023/11/09 08:24:09;;;;;;;4.72;3.30;;;13.90;70.50;15.60;99936.00;;;;5008023;28;20201;-77
2023/11/09 08:26:36;;;;;;;5.57;3.60;;;13.90;70.60;15.60;99938.00;;;;5008683;28;20740;-76
2023/11/09 08:29:04;;;;;;;6.05;3.63;;;13.90;70.60;15.70;99939.00;;;;5005265;28;20206;-76
2023/11/09 08:31:33;;;;;;;5.88;3.38;;;14.00;70.80;15.70;99937.00;;;;5009271;28;20237;-76
2023/11/09 08:34:01;;;;;;;11.00;3.85;;;14.00;70.90;15.70;99944.00;;;;5005877;28;20203;-76
2023/11/09 08:36:29;;;;;;;6.60;3.53;;;14.00;71.00;15.80;99941.00;;;;5012135;28;20227;-76
2023/11/09 08:38:58;;;;;;;7.13;4.22;;;14.00;71.10;15.80;99933.00;;;;5009490;28;20193;-76
2023/11/09 08:41:26;;;;;;;5.20;3.55;;;14.10;71.20;15.90;99946.00;;;;5013148;28;20197;-76
2023/11/09 08:43:56;;;;;;;7.30;3.80;;;14.10;71.30;15.90;99944.00;;;;5009123;28;20258;-76
2023/11/09 08:46:24;;;;;;;6.10;3.40;;;14.20;71.40;16.00;99942.00;;;;5011933;28;20232;-76
2023/11/09 08:48:51;;;;;;;6.85;3.58;;;14.20;71.40;16.00;99946.00;;;;5015170;28;20274;-76
2023/11/09 08:51:20;;;;;;;9.60;3.25;;;14.30;71.40;16.10;99947.00;;;;5013924;28;20208;-76
2023/11/09 08:53:47;;;;;;;7.13;3.15;;;14.30;71.40;16.10;99953.00;;;;5011416;28;20224;-77
2023/11/09 08:56:16;;;;;;;6.22;3.13;;;14.40;71.40;16.10;99943.00;;;;5015845;28;20220;-77
2023/11/09 08:58:43;;;;;;;5.95;2.92;;;14.40;71.30;16.20;99940.00;;;;5014136;28;20192;-76
2023/11/09 09:01:17;;;;;;;4.95;3.28;;;14.50;71.20;16.20;99940.00;;;;5007473;28;20200;-76
2023/11/09 09:03:46;;;;;;;5.72;2.83;;;14.50;71.10;16.20;99951.00;;;;5010479;28;20984;-76
2023/11/09 09:06:16;;;;;;;6.03;2.97;;;14.60;71.10;16.20;99949.00;;;;5013417;28;20208;-76
2023/11/09 09:08:44;;;;;;;10.02;3.25;;;14.60;71.00;16.30;99946.00;;;;5011066;28;20212;-76
2023/11/09 09:11:12;;;;;;;6.03;3.22;;;14.60;70.90;16.30;99954.00;;;;5013405;28;20197;-77
2023/11/09 09:13:41;;;;;;;5.00;2.88;;;14.60;70.80;16.40;99950.00;;;;5011238;28;20197;-76
2023/11/09 09:16:09;;;;;;;6.72;2.88;;;14.70;70.80;16.40;99948.00;;;;4999581;28;20320;-76
2023/11/09 09:18:36;;;;;;;6.57;3.00;;;14.70;70.70;16.40;99945.00;;;;5002967;28;20221;-77
2023/11/09 09:21:08;;;;;;;7.95;3.67;;;14.80;70.60;16.40;99947.00;;;;5005119;28;20232;-76
2023/11/09 09:23:36;;;;;;;6.82;3.38;;;14.80;70.50;16.40;99939.00;;;;5007855;28;20201;-76
2023/11/09 09:26:04;;;;;;;9.95;3.67;;;14.70;70.30;16.40;99940.00;;;;5012361;28;20232;-76
2023/11/09 09:28:34;;;;;;;6.25;3.72;;;14.70;70.10;16.40;99942.00;;;;5010720;28;20193;-77
2023/11/09 09:31:03;;;;;;;9.07;4.40;;;14.80;70.00;16.40;99941.00;;;;5005062;28;20207;-76
2023/11/09 09:33:35;;;;;;;6.25;4.10;;;14.80;70.00;16.40;99930.00;;;;5003207;28;20252;-76
2023/11/09 09:36:04;;;;;;;9.30;4.03;;;14.80;70.00;16.40;99932.00;;;;5002072;28;21255;-77
2023/11/09 09:38:34;;;;;;;6.57;3.95;;;14.80;70.10;16.50;99924.00;;;;5008816;28;20189;-76
2023/11/09 09:41:10;;;;;;;10.57;4.43;;;14.80;70.20;16.40;99934.00;;;;5005497;28;20205;-76
2023/11/09 09:43:41;;;;;;;6.85;4.10;;;14.80;70.10;16.50;99930.00;;;;5005435;28;20467;-76
2023/11/09 09:46:12;;;;;;;10.02;4.47;;;14.80;70.20;16.50;99925.00;;;;5003665;28;20232;-76
2023/11/09 09:48:40;;;;;;;9.85;4.65;;;14.90;70.10;16.60;99926.00;;;;5015172;28;20282;-76
2023/11/09 09:51:11;;;;;;;7.07;4.30;;;14.90;70.10;16.60;99930.00;;;;5011203;28;20240;-76
2023/11/09 09:53:40;;;;;;;13.38;5.03;;;14.90;70.10;16.60;99933.00;;;;5006168;28;20300;-76
2023/11/09 09:56:10;;;;;;;9.10;4.97;;;14.90;69.90;16.60;99940.00;;;;5007775;28;20220;-76
2023/11/09 09:58:38;;;;;;;8.07;4.70;;;15.00;69.90;16.70;99938.00;;;;5007659;28;20212;-76
2023/11/09 10:01:05;;;;;;;6.68;3.97;;;15.00;69.70;16.70;99938.00;;;;5004375;28;20201;-76
2023/11/09 10:03:35;;;;;;;9.27;4.32;;;15.00;69.40;16.60;99940.00;;;;5005739;28;20205;-76
2023/11/09 10:06:05;;;;;;;12.13;6.20;;;15.00;69.10;16.70;99942.00;;;;5007296;28;20540;-76
2023/11/09 10:08:33;;;;;;;12.88;4.90;;;15.00;69.60;16.60;99938.00;;;;5006373;28;20705;-75
2023/11/09 10:11:00;;;;;;;11.05;4.60;;;15.00;68.90;16.70;99940.00;;;;5007157;28;20189;-75
2023/11/09 10:13:30;;;;;;;9.30;4.07;;;15.00;68.80;16.60;99935.00;;;;5006620;28;20208;-75
2023/11/09 10:15:59;;;;;;;7.35;3.25;;;15.00;68.60;16.60;99941.00;;;;4997774;28;20284;-75
2023/11/09 10:18:28;;;;;;;10.60;3.55;;;15.00;68.60;16.60;99951.00;;;;5004527;28;20193;-75
2023/11/09 10:20:58;;;;;;;7.10;3.33;;;15.00;68.60;16.60;99948.00;;;;5004806;28;20207;-75
2023/11/09 10:23:27;;;;;;;8.77;2.95;;;15.00;68.60;16.60;99948.00;;;;5006195;28;20207;-76
2023/11/09 10:25:55;;;;;;;8.57;3.67;;;14.90;68.50;16.60;99955.00;;;;5003601;28;20220;-76
2023/11/09 10:28:24;;;;;;;9.40;3.20;;;14.90;68.50;16.60;99955.00;;;;5004484;28;20689;-75
2023/11/09 10:30:51;;;;;;;8.65;3.05;;;14.90;68.50;16.60;99949.00;;;;5005924;28;20220;-76
2023/11/09 10:33:19;;;;;;;14.13;3.53;;;14.90;68.30;16.50;99946.00;;;;5006941;28;20284;-75
2023/11/09 10:35:48;;;;;;;11.10;3.25;;;14.90;68.20;16.50;99951.00;;;;5003589;28;20836;-76
2023/11/09 10:38:20;;;;;;;7.40;2.85;;;14.90;68.20;16.50;99950.00;;;;5002879;28;20197;-75
2023/11/09 10:40:48;;;;;;;7.97;3.55;;;14.90;68.20;16.60;99945.00;;;;5005737;28;20300;-76
2023/11/09 10:43:16;;;;;;;4.68;2.50;;;14.90;68.30;16.60;99948.00;;;;5005191;28;20204;-76
2023/11/09 10:45:45;;;;;;;8.07;3.17;;;14.90;68.40;16.60;99947.00;;;;5017873;28;20205;-76
2023/11/09 10:48:17;;;;;;;7.15;2.35;;;15.00;68.40;16.70;99942.00;;;;5003286;28;20299;-76
2023/11/09 10:50:47;;;;;;;4.93;2.28;;;15.00;68.40;16.70;99943.00;;;;5010104;28;20201;-76
2023/11/09 10:53:18;;;;;;;8.82;3.20;;;15.00;68.20;16.70;99943.00;;;;5010883;28;20208;-75
2023/11/09 10:55:49;;;;;;;6.25;2.78;;;15.00;68.20;16.80;99935.00;;;;5004525;28;20229;-76
2023/11/09 10:58:20;;;;;;;10.88;2.90;;;15.10;68.30;16.80;99931.00;;;;5009858;28;20232;-76
2023/11/09 11:00:51;;;;;;;7.68;2.58;;;15.10;68.30;16.80;99935.00;;;;5015163;28;20718;-76
2023/11/09 11:03:27;;;;;;;7.72;2.42;;;15.10;68.30;16.80;99933.00;;;;5010518;28;20208;-76
2023/11/09 11:06:00;;;;;;;4.72;2.20;;;15.10;67.90;16.80;99928.00;;;;5005837;28;20204;-76
2023/11/09 11:08:35;;;;;;;7.40;2.38;;;15.20;67.90;16.90;99924.00;;;;5005084;28;20566;-76
2023/11/09 11:11:05;;;;;;;7.55;2.25;;;15.20;67.70;16.90;99920.00;;;;5004043;28;20263;-75